Time;durP1;ratioP1;P1;durP2;ratioP2;P2;SDS_P1;SDS_P2;PMS_P1;PMS_P2;Temp;Humidity;BMP_temperature;BMP_pressure;BME280_temperature;BME280_humidity;BME280_pressure;Samples;Min_cycle;Max_cycle;Signal;HPM_P1;HPM_P2
2021/12/28 00:00:44;;;;;;;0.40;0.37;;;;;;;7.85;100.00;94891.16;5133226;27;20553;-51
2021/12/28 00:03:12;;;;;;;0.30;0.20;;;;;;;7.32;100.00;94810.63;5133312;27;20434;-51
2021/12/28 00:05:41;;;;;;;0.30;0.20;;;;;;;7.79;100.00;94895.66;5133760;27;20546;-51
2021/12/28 00:08:12;;;;;;;0.80;0.70;;;;;;;7.83;100.00;94890.63;5133362;27;20418;-51
2021/12/28 00:10:41;;;;;;;0.37;0.33;;;;;;;7.66;100.00;94865.25;5133415;27;20487;-51
2021/12/28 00:13:10;;;;;;;0.30;0.20;;;;;;;7.83;100.00;94880.06;5133262;27;20486;-51
2021/12/28 00:15:48;;;;;;;0.40;0.40;;;;;;;7.84;100.00;94895.66;5133624;27;20501;-51
2021/12/28 00:18:16;;;;;;;0.30;0.20;;;;;;;7.32;100.00;94824.59;5133551;27;20430;-51
2021/12/28 00:20:48;;;;;;;0.30;0.27;;;;;;;7.84;100.00;94881.66;5133188;27;20464;-51
2021/12/28 00:23:20;;;;;;;0.77;0.77;;;;;;;7.60;100.00;94897.97;5133584;27;20438;-51
2021/12/28 00:25:51;;;;;;;0.87;0.87;;;;;;;7.35;100.00;94899.75;5133112;27;20473;-51
2021/12/28 00:28:20;;;;;;;0.40;0.40;;;;;;;7.47;100.00;94911.66;5133149;27;20469;-51
2021/12/28 00:30:49;;;;;;;0.83;0.30;;;;;;;7.46;100.00;94902.13;5133363;27;20477;-51
2021/12/28 00:33:19;;;;;;;0.30;0.30;;;;;;;7.31;100.00;94899.47;5133025;27;20434;-51
2021/12/28 00:35:48;;;;;;;0.40;0.40;;;;;;;6.89;100.00;94881.13;5132962;27;20521;-51
2021/12/28 00:38:24;;;;;;;0.60;0.60;;;;;;;7.00;100.00;94909.09;5133181;27;20551;-51
2021/12/28 00:40:56;;;;;;;0.30;0.20;;;;;;;7.14;100.00;94906.78;5132890;27;20525;-51
2021/12/28 00:43:25;;;;;;;0.30;0.20;;;;;;;7.37;100.00;94902.91;5133242;27;20459;-51
2021/12/28 00:45:53;;;;;;;0.30;0.20;;;;;;;7.53;100.00;94896.63;5132811;27;21085;-51
2021/12/28 00:48:22;;;;;;;0.87;0.87;;;;;;;7.53;100.00;94902.72;5133049;27;20486;-51
2021/12/28 00:50:52;;;;;;;0.40;0.30;;;;;;;7.64;100.00;94901.66;5133015;27;20500;-51
2021/12/28 00:53:22;;;;;;;0.30;0.20;;;;;;;6.66;100.00;94738.53;5132839;28;20497;-51
2021/12/28 00:55:50;;;;;;;0.47;0.30;;;;;;;7.56;100.00;94899.53;5132183;28;20511;-51
2021/12/28 00:58:19;;;;;;;0.30;0.20;;;;;;;7.47;100.00;94895.81;5132926;28;20502;-51
2021/12/28 01:00:48;;;;;;;0.87;0.80;;;;;;;7.39;100.00;94900.81;5132543;27;20515;-51
2021/12/28 01:03:17;;;;;;;0.53;0.53;;;;;;;7.46;100.00;94899.50;5132754;28;20426;-51
2021/12/28 01:05:46;;;;;;;0.30;0.20;;;;;;;7.28;100.00;94899.19;5132606;28;20462;-51
2021/12/28 01:08:15;;;;;;;0.50;0.50;;;;;;;6.78;100.00;94841.84;5132967;28;21011;-51
2021/12/28 01:10:47;;;;;;;0.30;0.20;;;;;;;7.37;100.00;94903.72;5131681;28;20521;-51
2021/12/28 01:13:17;;;;;;;0.30;0.20;;;;;;;6.61;100.00;94831.47;5132619;27;20461;-51
2021/12/28 01:15:46;;;;;;;0.63;0.63;;;;;;;7.17;100.00;94893.09;5132129;28;20506;-51
2021/12/28 01:18:15;;;;;;;0.30;0.20;;;;;;;6.90;100.00;94818.69;5132799;27;20431;-51
2021/12/28 01:20:44;;;;;;;0.50;0.37;;;;;;;7.36;100.00;94903.97;5132577;28;20427;-51
2021/12/28 01:23:13;;;;;;;0.30;0.20;;;;;;;7.04;100.00;94898.81;5132830;28;20854;-51
2021/12/28 01:25:42;;;;;;;1.27;1.23;;;;;;;6.77;100.00;94914.78;5132540;27;20522;-51
2021/12/28 01:28:12;;;;;;;0.30;0.30;;;;;;;6.84;100.00;94920.59;5132494;28;20507;-51
2021/12/28 01:30:42;;;;;;;1.07;0.30;;;;;;;7.18;100.00;94926.31;5132845;28;20501;-51
2021/12/28 01:33:11;;;;;;;0.30;0.20;;;;;;;7.35;100.00;94921.63;5132965;28;20422;-51
2021/12/28 01:35:40;;;;;;;0.47;0.47;;;;;;;7.52;100.00;94913.50;5132421;28;20508;-51
2021/12/28 01:38:08;;;;;;;0.30;0.30;;;;;;;7.62;100.00;94911.69;5132404;28;20422;-51
2021/12/28 01:40:39;;;;;;;0.40;0.40;;;;;;;6.87;100.00;94796.28;5132725;28;20514;-51
2021/12/28 01:43:12;;;;;;;0.60;0.60;;;;;;;7.64;100.00;94891.13;5132331;28;20435;-51
2021/12/28 01:45:46;;;;;;;0.30;0.20;;;;;;;7.73;100.00;94898.53;5132712;28;20498;-51
2021/12/28 01:48:18;;;;;;;0.50;0.40;;;;;;;7.90;100.00;94910.41;5132554;27;20438;-51
2021/12/28 01:50:47;;;;;;;0.40;0.37;;;;;;;7.70;100.00;94897.19;5132592;28;20514;-51
2021/12/28 01:53:17;;;;;;;0.60;0.60;;;;;;;7.36;100.00;94915.28;5134461;27;20430;-51
2021/12/28 01:55:48;;;;;;;0.30;0.20;;;;;;;7.57;100.00;94905.59;5136321;27;20540;-51
2021/12/28 01:58:16;;;;;;;0.40;0.40;;;;;;;7.68;100.00;94910.66;5135955;27;20434;-51
2021/12/28 02:00:49;;;;;;;0.40;0.40;;;;;;;7.74;100.00;94908.84;5135718;27;20516;-51
2021/12/28 02:03:20;;;;;;;1.70;1.27;;;;;;;7.28;100.00;94910.53;5135703;27;20511;-51
2021/12/28 02:05:50;;;;;;;12.10;2.20;;;;;;;7.00;100.00;94918.84;5136145;27;20438;-51
2021/12/28 02:08:19;;;;;;;1.70;1.70;;;;;;;7.15;100.00;94913.66;5135773;27;20521;-51
2021/12/28 02:10:49;;;;;;;0.90;0.90;;;;;;;6.81;100.00;94836.03;5135727;27;20461;-51
2021/12/28 02:13:18;;;;;;;1.00;1.00;;;;;;;7.27;100.00;94924.75;5135690;27;20473;-51
2021/12/28 02:15:48;;;;;;;0.57;0.57;;;;;;;7.14;100.00;94924.44;5135842;27;20598;-51
2021/12/28 02:18:19;;;;;;;0.83;0.30;;;;;;;7.04;100.00;94873.28;5135591;27;20460;-51
2021/12/28 02:20:49;;;;;;;1.30;1.07;;;;;;;7.54;100.00;94904.28;5135570;27;20899;-51
2021/12/28 02:23:18;;;;;;;1.60;0.67;;;;;;;7.61;100.00;94909.31;5135538;27;20454;-51
2021/12/28 02:25:46;;;;;;;0.30;0.20;;;;;;;7.46;100.00;94915.31;5135390;27;21125;-51
2021/12/28 02:28:15;;;;;;;0.30;0.20;;;;;;;7.61;100.00;94898.78;5135488;27;20497;-51
2021/12/28 02:30:47;;;;;;;14.13;1.60;;;;;;;7.77;100.00;94905.66;5135460;27;20497;-51
2021/12/28 02:33:17;;;;;;;2.03;1.93;;;;;;;8.00;100.00;94907.00;5135161;27;20474;-50
2021/12/28 02:35:45;;;;;;;0.63;0.60;;;;;;;7.87;100.00;94900.38;5134901;27;20528;-50
2021/12/28 02:38:15;;;;;;;0.40;0.33;;;;;;;7.61;100.00;94898.78;5135199;27;20522;-50
2021/12/28 02:40:45;;;;;;;0.30;0.20;;;;;;;7.77;100.00;94900.38;5135279;27;20407;-50
2021/12/28 02:43:16;;;;;;;1.47;1.47;;;;;;;7.76;100.00;94900.66;5135180;27;20517;-50
2021/12/28 02:45:51;;;;;;;0.30;0.20;;;;;;;7.84;100.00;94898.28;5135169;27;20445;-53
2021/12/28 02:48:20;;;;;;;0.40;0.27;;;;;;;7.93;100.00;94891.44;5134914;27;20505;-50
2021/12/28 02:50:54;;;;;;;0.30;0.30;;;;;;;8.01;100.00;94879.56;5135029;27;20918;-50
2021/12/28 02:53:25;;;;;;;4.33;0.97;;;;;;;8.08;100.00;94885.38;5134828;27;20839;-50
2021/12/28 02:55:55;;;;;;;0.37;0.30;;;;;;;7.93;100.00;94866.88;5134761;27;20470;-50
2021/12/28 02:58:30;;;;;;;0.40;0.30;;;;;;;8.05;100.00;94891.97;5135155;27;20446;-50
2021/12/28 03:01:02;;;;;;;0.50;0.37;;;;;;;7.54;100.00;94859.44;5134852;27;20572;-50
2021/12/28 03:03:33;;;;;;;0.97;0.37;;;;;;;7.71;100.00;94898.00;5134549;27;20426;-50
2021/12/28 03:06:04;;;;;;;7.93;1.67;;;;;;;7.49;100.00;94888.44;5134006;27;20851;-50
2021/12/28 03:08:37;;;;;;;3.93;2.30;;;;;;;7.64;100.00;94893.75;5134690;27;20434;-50
2021/12/28 03:11:07;;;;;;;0.30;0.20;;;;;;;7.68;100.00;94900.09;5134698;27;20920;-52
2021/12/28 03:13:38;;;;;;;0.50;0.40;;;;;;;7.24;100.00;94835.66;5134534;27;20426;-50
2021/12/28 03:16:07;;;;;;;0.40;0.30;;;;;;;7.61;100.00;94878.44;5134483;27;20494;-50
2021/12/28 03:18:37;;;;;;;0.53;0.53;;;;;;;7.65;100.00;94892.72;5134153;27;20442;-50
2021/12/28 03:21:07;;;;;;;0.57;0.57;;;;;;;7.63;100.00;94884.28;5134243;27;20993;-50
2021/12/28 03:23:39;;;;;;;1.20;1.20;;;;;;;7.29;100.00;94888.38;5133803;27;20857;-50
2021/12/28 03:26:09;;;;;;;2.33;0.80;;;;;;;7.28;100.00;94873.63;5134239;27;20514;-50
2021/12/28 03:28:40;;;;;;;0.60;0.60;;;;;;;7.54;100.00;94877.91;5134234;27;20466;-50
2021/12/28 03:31:11;;;;;;;0.40;0.30;;;;;;;7.55;100.00;94871.59;5134177;27;20979;-51
2021/12/28 03:33:42;;;;;;;1.27;1.27;;;;;;;7.63;100.00;94876.38;5134089;27;21087;-51
2021/12/28 03:36:12;;;;;;;0.30;0.20;;;;;;;7.35;100.00;94821.47;5134449;27;20506;-51
2021/12/28 03:38:42;;;;;;;0.93;0.40;;;;;;;7.68;100.00;94879.00;5134201;27;20871;-50
2021/12/28 03:41:12;;;;;;;0.50;0.40;;;;;;;7.72;100.00;94857.34;5134383;27;20517;-50
2021/12/28 03:43:43;;;;;;;0.30;0.20;;;;;;;7.59;100.00;94874.47;5133907;27;20430;-50
2021/12/28 03:46:12;;;;;;;0.53;0.50;;;;;;;6.74;100.00;94883.69;5133991;27;20502;-50
2021/12/28 03:48:41;;;;;;;0.90;0.90;;;;;;;6.64;100.00;94891.53;5133929;27;20437;-50
2021/12/28 03:51:10;;;;;;;0.40;0.40;;;;;;;6.31;100.00;94858.41;5133934;27;20874;-50
2021/12/28 03:53:38;;;;;;;1.27;0.40;;;;;;;6.54;100.00;94893.28;5133724;27;20435;-50
2021/12/28 03:56:10;;;;;;;2.80;2.60;;;;;;;6.40;100.00;94896.34;5133787;27;20545;-50
2021/12/28 03:58:40;;;;;;;3.07;2.97;;;;;;;6.42;100.00;94882.16;5133635;27;20450;-51
2021/12/28 04:01:13;;;;;;;0.40;0.30;;;;;;;6.23;100.00;94887.03;5133145;27;20508;-50
2021/12/28 04:03:42;;;;;;;0.40;0.30;;;;;;;6.45;100.00;94895.63;5133839;27;20437;-50
2021/12/28 04:06:11;;;;;;;1.53;0.67;;;;;;;6.49;100.00;94886.16;5134050;27;20514;-51
2021/12/28 04:08:42;;;;;;;0.83;0.83;;;;;;;6.66;100.00;94893.88;5133170;27;20980;-50
2021/12/28 04:11:25;;;;;;;4.27;0.80;;;;;;;6.73;100.00;94876.03;5133635;27;20416;-50
2021/12/28 04:13:59;;;;;;;0.30;0.20;;;;;;;6.92;100.00;94875.34;5132900;27;20437;-50
2021/12/28 04:16:28;;;;;;;2.93;1.50;;;;;;;6.58;100.00;94860.94;5133260;27;20565;-50
2021/12/28 04:18:58;;;;;;;0.83;0.83;;;;;;;6.82;100.00;94879.75;5133801;27;20433;-51
2021/12/28 04:21:27;;;;;;;0.63;0.50;;;;;;;7.03;100.00;94887.50;5133021;27;20506;-51
2021/12/28 04:23:55;;;;;;;0.30;0.30;;;;;;;6.75;100.00;94794.94;5133428;27;20445;-51
2021/12/28 04:26:27;;;;;;;0.30;0.30;;;;;;;7.25;100.00;94868.88;5133933;27;20427;-50
2021/12/28 04:28:56;;;;;;;0.50;0.50;;;;;;;6.84;100.00;94856.59;5133313;27;20526;-51
2021/12/28 04:31:25;;;;;;;0.40;0.30;;;;;;;6.61;100.00;94814.88;5133276;27;20848;-50
2021/12/28 04:33:53;;;;;;;0.93;0.80;;;;;;;6.96;100.00;94873.78;5132557;27;20429;-51
2021/12/28 04:36:25;;;;;;;0.33;0.33;;;;;;;6.60;100.00;94847.53;5133156;27;20518;-51
2021/12/28 04:38:53;;;;;;;0.30;0.30;;;;;;;7.06;100.00;94877.50;5133149;27;20983;-50
2021/12/28 04:41:21;;;;;;;0.90;0.40;;;;;;;6.04;100.00;94693.81;5133105;27;20436;-50
2021/12/28 04:43:51;;;;;;;0.30;0.30;;;;;;;7.26;100.00;94881.00;5133364;27;20419;-50
2021/12/28 04:46:20;;;;;;;0.40;0.40;;;;;;;6.79;100.00;94817.84;5133425;27;20462;-50
2021/12/28 04:48:48;;;;;;;0.70;0.70;;;;;;;7.26;100.00;94881.00;5133317;27;20447;-51
2021/12/28 04:51:17;;;;;;;0.70;0.70;;;;;;;7.27;100.00;94882.59;5132923;27;20922;-51
2021/12/28 04:53:48;;;;;;;0.30;0.30;;;;;;;7.35;100.00;94876.81;5133086;27;20419;-51
2021/12/28 04:56:17;;;;;;;3.50;0.40;;;;;;;6.22;100.00;94675.72;5132816;28;20512;-51
2021/12/28 04:58:45;;;;;;;0.30;0.30;;;;;;;6.85;100.00;94800.25;5133057;28;20926;-51
2021/12/28 05:01:15;;;;;;;1.53;1.53;;;;;;;6.83;100.00;94871.59;5132845;27;20473;-51
2021/12/28 05:03:44;;;;;;;0.73;0.73;;;;;;;7.07;100.00;94876.44;5133484;28;20425;-51
2021/12/28 05:06:12;;;;;;;0.43;0.33;;;;;;;7.29;100.00;94885.75;5133229;28;20451;-51
2021/12/28 05:08:41;;;;;;;0.30;0.27;;;;;;;6.90;100.00;94853.75;5133111;27;20860;-51
2021/12/28 05:11:09;;;;;;;0.30;0.20;;;;;;;7.52;100.00;94880.03;5132502;28;20821;-51
2021/12/28 05:13:38;;;;;;;1.70;0.73;;;;;;;7.53;100.00;94868.44;5132719;28;20430;-51
2021/12/28 05:16:06;;;;;;;1.53;1.43;;;;;;;7.56;100.00;94870.53;5132937;28;20519;-50
2021/12/28 05:18:36;;;;;;;0.40;0.33;;;;;;;7.55;100.00;94889.25;5133030;28;20845;-50
2021/12/28 05:21:04;;;;;;;0.50;0.40;;;;;;;6.93;100.00;94792.59;5132673;28;20509;-50
2021/12/28 05:23:33;;;;;;;1.60;1.60;;;;;;;7.67;100.00;94887.16;5132996;28;20513;-50
2021/12/28 05:26:01;;;;;;;0.50;0.40;;;;;;;7.67;100.00;94877.41;5132952;28;20418;-51
2021/12/28 05:28:30;;;;;;;3.30;0.57;;;;;;;7.82;100.00;94886.41;5135121;27;20422;-50
2021/12/28 05:30:58;;;;;;;0.50;0.50;;;;;;;7.69;100.00;94893.75;5136884;27;20441;-50
2021/12/28 05:33:26;;;;;;;0.70;0.70;;;;;;;7.54;100.00;94882.38;5136673;27;20962;-50
2021/12/28 05:35:56;;;;;;;0.60;0.53;;;;;;;7.11;100.00;94893.34;5136559;27;20970;-50
2021/12/28 05:38:25;;;;;;;2.20;2.20;;;;;;;6.94;100.00;94893.50;5136597;27;20430;-51
2021/12/28 05:40:53;;;;;;;1.37;1.20;;;;;;;6.49;100.00;94830.88;5136483;27;20889;-51
2021/12/28 05:43:21;;;;;;;1.63;1.53;;;;;;;6.95;100.00;94876.66;5136436;27;20466;-51
2021/12/28 05:45:50;;;;;;;1.37;1.27;;;;;;;6.90;100.00;94853.75;5136584;27;20461;-50
2021/12/28 05:48:18;;;;;;;2.20;0.40;;;;;;;7.09;100.00;94890.94;5136181;27;20428;-51
2021/12/28 05:50:47;;;;;;;0.40;0.33;;;;;;;6.43;100.00;94794.25;5136151;27;20510;-51
2021/12/28 05:53:17;;;;;;;0.30;0.20;;;;;;;7.09;100.00;94882.25;5136250;27;20458;-51
2021/12/28 05:55:45;;;;;;;0.30;0.30;;;;;;;6.47;100.00;94792.69;5136110;27;20506;-51
2021/12/28 05:58:13;;;;;;;0.80;0.80;;;;;;;7.37;100.00;94893.16;5136015;27;20506;-51
2021/12/28 06:00:42;;;;;;;0.30;0.30;;;;;;;7.34;100.00;94883.13;5135775;27;20501;-51
2021/12/28 06:03:11;;;;;;;0.60;0.60;;;;;;;7.38;100.00;94888.69;5136458;27;20434;-51
2021/12/28 06:05:39;;;;;;;0.60;0.60;;;;;;;7.36;100.00;94886.28;5136290;27;20973;-50
2021/12/28 06:08:07;;;;;;;0.57;0.50;;;;;;;7.00;100.00;94882.75;5135903;27;20473;-50
2021/12/28 06:10:52;;;;;;;2.70;2.60;;;;;;;7.19;100.00;94911.28;5135541;27;20480;-51
2021/12/28 06:13:21;;;;;;;1.67;1.63;;;;;;;7.15;100.00;94907.56;5135638;27;20430;-51
2021/12/28 06:15:49;;;;;;;5.10;0.90;;;;;;;6.96;100.00;94899.31;5136135;27;20450;-51
2021/12/28 06:18:17;;;;;;;1.23;1.23;;;;;;;7.08;100.00;94918.38;5135221;27;20474;-51
2021/12/28 06:20:46;;;;;;;0.67;0.67;;;;;;;7.15;100.00;94926.03;5135500;27;20454;-51
2021/12/28 06:23:14;;;;;;;1.80;1.80;;;;;;;7.38;100.00;94915.84;5135816;27;20880;-51
2021/12/28 06:25:43;;;;;;;0.60;0.60;;;;;;;7.42;100.00;94902.94;5135721;27;20513;-51
2021/12/28 06:28:13;;;;;;;0.33;0.30;;;;;;;7.46;100.00;94923.22;5135564;27;20462;-50
2021/12/28 06:30:41;;;;;;;1.70;0.90;;;;;;;7.33;100.00;94851.75;5135860;27;20469;-52
2021/12/28 06:33:10;;;;;;;0.90;0.90;;;;;;;7.46;100.00;94902.13;5135789;27;20479;-50
2021/12/28 06:35:39;;;;;;;2.00;1.90;;;;;;;7.73;100.00;94914.34;5135345;27;20514;-50
2021/12/28 06:38:08;;;;;;;1.80;1.70;;;;;;;7.83;100.00;94922.28;5134961;27;20513;-51
2021/12/28 06:40:36;;;;;;;0.60;0.60;;;;;;;7.54;100.00;94856.81;5135337;27;20513;-51
2021/12/28 06:43:04;;;;;;;1.07;1.00;;;;;;;8.04;100.00;94913.34;5135655;27;20450;-51
2021/12/28 06:45:34;;;;;;;3.10;2.83;;;;;;;7.94;100.00;94921.25;5135284;27;20430;-51
2021/12/28 06:48:03;;;;;;;0.97;0.97;;;;;;;7.64;100.00;94864.75;5135216;27;20877;-52
2021/12/28 06:50:32;;;;;;;4.00;2.10;;;;;;;8.19;100.00;94926.56;5135082;27;20458;-51
2021/12/28 06:53:00;;;;;;;1.60;0.80;;;;;;;7.95;100.00;94891.16;5135090;27;20447;-52
2021/12/28 06:55:29;;;;;;;2.40;2.30;;;;;;;8.00;100.00;94913.06;5134414;27;20537;-50
2021/12/28 06:57:57;;;;;;;2.53;2.43;;;;;;;7.89;100.00;94886.94;5134849;27;20524;-51
2021/12/28 07:00:27;;;;;;;0.97;0.97;;;;;;;8.23;100.00;94928.41;5134503;27;20478;-51
2021/12/28 07:02:56;;;;;;;3.43;3.23;;;;;;;8.23;100.00;94917.03;5134768;27;20438;-51
2021/12/28 07:05:25;;;;;;;2.23;2.13;;;;;;;8.30;100.00;94917.59;5134782;27;20423;-51
2021/12/28 07:07:53;;;;;;;2.47;2.23;;;;;;;8.59;100.00;94934.50;5134633;27;20422;-51
2021/12/28 07:10:22;;;;;;;5.50;5.13;;;;;;;8.53;100.00;94924.97;5134328;27;20473;-51
2021/12/28 07:12:51;;;;;;;3.53;3.33;;;;;;;8.40;100.00;94914.19;5134577;27;20513;-51
2021/12/28 07:15:20;;;;;;;3.00;2.60;;;;;;;8.53;100.00;94924.97;5134126;27;20859;-51
2021/12/28 07:17:48;;;;;;;5.10;4.70;;;;;;;8.46;100.00;94924.47;5134422;27;20470;-51
2021/12/28 07:20:19;;;;;;;7.47;7.07;;;;;;;8.37;100.00;94927.91;5134741;27;20466;-50
2021/12/28 07:22:47;;;;;;;6.23;3.77;;;;;;;8.29;100.00;94916.03;5134387;27;20514;-51
2021/12/28 07:25:16;;;;;;;3.50;3.13;;;;;;;8.34;100.00;94934.50;5134388;27;20465;-50
2021/12/28 07:27:44;;;;;;;3.60;3.30;;;;;;;7.50;100.00;94810.94;5134367;27;20526;-51
2021/12/28 07:30:14;;;;;;;4.57;4.27;;;;;;;8.09;100.00;94876.41;5134168;27;20517;-50
2021/12/28 07:32:42;;;;;;;5.10;4.70;;;;;;;8.23;100.00;94917.03;5134223;27;20513;-50
2021/12/28 07:35:12;;;;;;;8.27;4.70;;;;;;;8.46;100.00;94942.94;5133710;27;20422;-50
2021/12/28 07:37:42;;;;;;;10.90;7.60;;;;;;;8.50;100.00;94933.44;5133930;27;20458;-50
2021/12/28 07:40:12;;;;;;;5.10;4.60;;;;;;;8.40;100.00;94933.44;5133880;27;20471;-50
2021/12/28 07:42:41;;;;;;;9.87;4.27;;;;;;;8.71;100.00;94934.22;5133866;27;20460;-50
2021/12/28 07:45:12;;;;;;;3.30;3.10;;;;;;;9.12;100.00;94929.63;5134131;27;20446;-50
2021/12/28 07:47:42;;;;;;;2.43;2.43;;;;;;;9.29;100.00;94915.03;5133257;27;20491;-50
2021/12/28 07:50:13;;;;;;;6.77;4.33;;;;;;;9.51;100.00;94912.03;5132983;27;20612;-50
2021/12/28 07:52:43;;;;;;;3.63;3.33;;;;;;;9.67;100.00;94910.88;5133481;27;20521;-50
2021/12/28 07:55:13;;;;;;;3.50;3.30;;;;;;;9.71;100.00;94905.84;5134197;27;20439;-50
2021/12/28 07:57:41;;;;;;;4.40;3.90;;;;;;;9.67;100.00;94915.38;5133361;27;20470;-50
2021/12/28 08:00:14;;;;;;;2.03;1.97;;;;;;;9.76;100.00;94924.34;5133478;27;20529;-50
2021/12/28 08:02:44;;;;;;;3.17;3.07;;;;;;;9.23;100.00;94931.19;5133447;27;20481;-50
2021/12/28 08:05:13;;;;;;;3.17;2.97;;;;;;;9.12;100.00;94940.22;5133723;27;20422;-50
2021/12/28 08:07:43;;;;;;;2.93;2.83;;;;;;;9.30;100.00;94924.56;5133650;27;20458;-50
2021/12/28 08:10:14;;;;;;;4.13;3.47;;;;;;;9.55;100.00;94931.59;5133640;27;20838;-51
2021/12/28 08:12:43;;;;;;;6.27;3.43;;;;;;;9.73;100.00;94930.19;5133349;27;20504;-50
2021/12/28 08:15:12;;;;;;;8.50;5.60;;;;;;;9.43;100.00;94918.69;5133578;27;20861;-50
2021/12/28 08:17:40;;;;;;;3.70;3.50;;;;;;;9.83;100.00;94901.81;5133416;27;20464;-50
2021/12/28 08:20:11;;;;;;;3.60;2.73;;;;;;;10.26;100.00;94910.81;5133246;27;20514;-50
2021/12/28 08:22:40;;;;;;;3.07;2.97;;;;;;;10.46;100.00;94892.09;5133164;27;20458;-50
2021/12/28 08:25:13;;;;;;;4.07;3.80;;;;;;;10.61;100.00;94909.72;5132011;27;20438;-50
2021/12/28 08:27:42;;;;;;;8.30;4.00;;;;;;;10.66;100.00;94902.53;5133220;27;20434;-49
2021/12/28 08:30:12;;;;;;;8.47;6.00;;;;;;;10.04;100.00;94907.78;5132382;27;20423;-49
2021/12/28 08:32:41;;;;;;;9.33;3.90;;;;;;;9.09;100.00;94898.44;5132989;27;20517;-49
2021/12/28 08:35:11;;;;;;;17.53;3.70;;;;;;;8.66;100.00;94849.69;5132986;27;20998;-49
2021/12/28 08:37:40;;;;;;;4.17;2.67;;;;;;;8.87;100.00;94906.72;5133030;27;20517;-49
2021/12/28 08:40:13;;;;;;;3.77;3.57;;;;;;;8.48;100.00;94925.00;5133057;27;20517;-50
2021/12/28 08:42:41;;;;;;;1.10;1.10;;;;;;;8.35;100.00;94924.75;5132536;27;20430;-49
2021/12/28 08:45:11;;;;;;;1.77;1.17;;;;;;;7.81;100.00;94927.84;5132534;27;21008;-50
2021/12/28 08:47:40;;;;;;;0.73;0.73;;;;;;;7.71;100.00;94930.44;5132401;27;20490;-50
2021/12/28 08:50:10;;;;;;;1.07;1.03;;;;;;;7.68;100.00;94939.66;5132667;27;20918;-49
2021/12/28 08:52:39;;;;;;;0.60;0.50;;;;;;;7.58;100.00;94937.00;5133026;27;20511;-50
2021/12/28 08:55:16;;;;;;;0.53;0.53;;;;;;;7.85;100.00;94936.00;5132682;27;20434;-49
2021/12/28 08:57:46;;;;;;;0.40;0.37;;;;;;;7.71;100.00;94853.16;5131845;28;20473;-50
2021/12/28 09:00:19;;;;;;;0.60;0.60;;;;;;;8.32;100.00;94928.72;5132550;28;20963;-50
2021/12/28 09:02:47;;;;;;;3.70;0.67;;;;;;;8.72;100.00;94920.75;5135872;27;20442;-51
2021/12/28 09:05:16;;;;;;;0.90;0.90;;;;;;;9.07;100.00;94908.50;5136966;27;20434;-50
2021/12/28 09:07:45;;;;;;;0.50;0.50;;;;;;;9.46;100.00;94877.69;5137197;27;20418;-50
2021/12/28 09:10:14;;;;;;;3.00;0.80;;;;;;;10.26;100.00;94870.28;5136690;27;20434;-50
2021/12/28 09:12:44;;;;;;;0.93;0.93;;;;;;;10.45;100.00;94884.44;5136898;27;20980;-50
2021/12/28 09:15:13;;;;;;;1.33;1.23;;;;;;;10.75;100.00;94882.28;5136964;27;20542;-49
2021/12/28 09:17:43;;;;;;;3.70;0.83;;;;;;;10.73;100.00;94876.47;5136830;27;20513;-50
2021/12/28 09:20:15;;;;;;;2.13;2.03;;;;;;;10.92;100.00;94879.22;5136951;27;20910;-50
2021/12/28 09:23:04;;;;;;;0.57;0.40;;;;;;;11.42;100.00;94875.97;5136558;27;20449;-50
2021/12/28 09:25:32;;;;;;;1.77;1.67;;;;;;;10.63;100.00;94859.88;5136862;27;20434;-50
2021/12/28 09:28:03;;;;;;;2.60;2.50;;;;;;;10.60;100.00;94881.66;5136939;27;20453;-50
2021/12/28 09:30:32;;;;;;;1.07;0.97;;;;;;;10.83;100.00;94818.06;5136864;27;20505;-50
2021/12/28 09:33:01;;;;;;;0.60;0.60;;;;;;;11.92;100.00;94871.06;5136584;27;20422;-49
2021/12/28 09:35:29;;;;;;;1.60;1.60;;;;;;;11.95;100.00;94828.00;5136409;27;20805;-49
2021/12/28 09:37:58;;;;;;;2.30;2.20;;;;;;;12.32;100.00;94865.13;5136705;27;20438;-49
2021/12/28 09:40:30;;;;;;;1.00;1.00;;;;;;;11.75;100.00;94690.25;5136057;27;20474;-50
2021/12/28 09:42:59;;;;;;;2.00;1.47;;;;;;;12.37;100.00;94745.47;5135995;27;20451;-49
2021/12/28 09:45:29;;;;;;;2.57;2.30;;;;;;;12.91;100.00;94864.38;5136148;27;20468;-49
2021/12/28 09:47:57;;;;;;;3.13;3.03;;;;;;;12.89;100.00;94855.09;5136340;27;20415;-49
2021/12/28 09:50:27;;;;;;;1.63;1.53;;;;;;;13.27;100.00;94853.88;5136132;27;20941;-49
2021/12/28 09:52:55;;;;;;;1.13;1.03;;;;;;;12.90;100.00;94851.38;5136277;27;20505;-49
2021/12/28 09:55:28;;;;;;;3.33;3.03;;;;;;;12.02;100.00;94829.22;5135881;27;20438;-49
2021/12/28 09:57:58;;;;;;;1.03;1.03;;;;;;;12.11;100.00;94853.25;5136267;27;20426;-49
2021/12/28 10:00:26;;;;;;;5.60;3.10;;;;;;;11.37;100.00;94832.78;5134990;27;20910;-51
2021/12/28 10:03:14;;;;;;;2.30;2.10;;;;;;;10.93;100.00;94773.94;5133808;27;20425;-49
2021/12/28 10:05:44;;;;;;;1.23;1.00;;;;;;;11.68;100.00;94862.38;5135719;27;20457;-49
2021/12/28 10:08:13;;;;;;;1.50;1.40;;;;;;;11.71;100.00;94859.16;5135544;27;20462;-49
2021/12/28 10:10:44;;;;;;;2.53;0.80;;;;;;;12.05;100.00;94851.75;5135679;27;20431;-49
2021/12/28 10:13:20;;;;;;;2.50;2.30;;;;;;;11.47;100.00;94859.97;5134872;27;20513;-49
2021/12/28 10:15:50;;;;;;;1.17;0.93;;;;;;;11.24;100.00;94844.09;5135591;27;20549;-49
2021/12/28 10:18:21;;;;;;;4.50;4.07;;;;;;;11.48;100.00;94853.59;5135907;27;20433;-49
2021/12/28 10:20:52;;;;;;;3.60;3.40;;;;;;;11.52;100.00;94829.13;5135591;27;20558;-49
2021/12/28 10:23:25;;;;;;;0.40;0.30;;;;;;;11.78;100.00;94843.66;5135408;27;20466;-49
2021/12/28 10:25:56;;;;;;;2.37;1.87;;;;;;;11.42;100.00;94840.69;5134794;27;20455;-49
2021/12/28 10:28:29;;;;;;;8.93;3.73;;;;;;;11.54;100.00;94837.59;5135418;27;20454;-49
2021/12/28 10:31:01;;;;;;;2.93;2.77;;;;;;;10.85;100.00;94799.22;5135302;27;21005;-49
2021/12/28 10:33:34;;;;;;;1.50;1.47;;;;;;;10.80;100.00;94826.56;5135207;27;20462;-49
2021/12/28 10:36:05;;;;;;;3.27;2.40;;;;;;;11.12;100.00;94836.56;5135200;27;20517;-48
2021/12/28 10:38:36;;;;;;;3.13;1.90;;;;;;;11.53;100.00;94818.25;5135022;27;20525;-49
2021/12/28 10:41:08;;;;;;;3.83;1.97;;;;;;;11.67;100.00;94821.75;5135613;27;20423;-49
2021/12/28 10:43:38;;;;;;;1.00;0.90;;;;;;;12.03;100.00;94824.69;5135425;27;20875;-49
2021/12/28 10:46:08;;;;;;;3.17;1.60;;;;;;;11.76;100.00;94824.59;5134886;27;20427;-49
2021/12/28 10:48:43;;;;;;;2.90;0.97;;;;;;;11.28;100.00;94823.91;5134436;27;20495;-48
2021/12/28 10:51:14;;;;;;;9.77;1.90;;;;;;;11.22;100.00;94812.56;5134966;27;21126;-48
2021/12/28 10:53:54;;;;;;;1.77;1.77;;;;;;;11.59;100.00;94824.25;5135418;27;20446;-49
2021/12/28 10:56:24;;;;;;;2.00;0.73;;;;;;;11.67;100.00;94819.09;5134777;27;20439;-48
2021/12/28 10:58:53;;;;;;;2.07;2.00;;;;;;;11.61;100.00;94806.19;5134756;27;20983;-48
2021/12/28 11:01:23;;;;;;;2.83;2.63;;;;;;;12.12;100.00;94812.31;5134776;27;20509;-48
2021/12/28 11:03:55;;;;;;;5.07;2.83;;;;;;;12.06;100.00;94789.59;5134729;27;20484;-49
2021/12/28 11:06:28;;;;;;;2.27;2.17;;;;;;;11.94;100.00;94789.25;5134601;27;20438;-49
2021/12/28 11:08:58;;;;;;;2.97;2.03;;;;;;;12.32;100.00;94804.00;5134786;27;20469;-48
2021/12/28 11:11:28;;;;;;;0.90;0.90;;;;;;;12.54;100.00;94793.53;5134880;27;20524;-50
2021/12/28 11:13:59;;;;;;;1.87;1.77;;;;;;;13.00;100.00;94774.84;5134658;27;20438;-49
2021/12/28 11:16:29;;;;;;;2.00;1.90;;;;;;;13.48;100.00;94785.81;5134739;27;20454;-49
2021/12/28 11:19:00;;;;;;;6.07;2.03;;;;;;;13.94;100.00;94778.34;5134762;27;20441;-49
2021/12/28 11:21:32;;;;;;;1.47;0.50;;;;;;;14.04;100.00;94768.56;5134355;27;20469;-50
2021/12/28 11:24:04;;;;;;;2.03;1.93;;;;;;;13.78;100.00;94771.81;5133864;27;20465;-49
2021/12/28 11:26:37;;;;;;;1.60;1.47;;;;;;;13.65;100.00;94769.19;5133178;27;20949;-49
2021/12/28 11:29:07;;;;;;;2.63;1.03;;;;;;;14.06;100.00;94766.38;5134233;27;20470;-49
2021/12/28 11:31:37;;;;;;;1.10;1.10;;;;;;;13.95;100.00;94763.16;5134173;27;20502;-49
2021/12/28 11:34:12;;;;;;;2.40;2.30;;;;;;;12.67;100.00;94579.28;5133793;27;20454;-50
2021/12/28 11:36:43;;;;;;;0.97;0.97;;;;;;;13.58;100.00;94756.31;5134397;27;20514;-50
2021/12/28 11:39:15;;;;;;;1.97;1.90;;;;;;;13.52;100.00;94754.84;5133935;27;20472;-50
2021/12/28 11:41:45;;;;;;;2.17;2.07;;;;;;;13.40;100.00;94754.59;5133978;27;20484;-50
2021/12/28 11:44:14;;;;;;;1.77;1.67;;;;;;;13.72;100.00;94754.38;5133921;27;20513;-49